createdAt,value
2018-09-01T00:09:16.559Z,99.99
2018-09-01T00:19:16.606Z,99.99
2018-09-01T00:29:16.577Z,99.99
2018-09-01T00:39:16.526Z,99.99
2018-09-01T00:49:16.615Z,99.99
2018-09-01T00:59:16.543Z,99.99
2018-09-01T01:09:16.634Z,99.99
2018-09-01T01:19:16.611Z,99.99
2018-09-01T01:29:16.553Z,99.99
2018-09-01T01:39:16.598Z,99.99
2018-09-01T01:49:16.545Z,99.99
2018-09-01T01:59:16.532Z,99.99
2018-09-01T02:09:16.570Z,99.99
2018-09-01T02:19:16.541Z,99.99
2018-09-01T02:29:16.613Z,99.99
2018-09-01T02:39:16.595Z,99.99
2018-09-01T02:49:16.545Z,99.99
2018-09-01T02:59:16.610Z,99.99
2018-09-01T03:09:16.563Z,99.99
2018-09-01T03:19:16.526Z,99.99
2018-09-01T03:29:16.571Z,99.99
2018-09-01T03:39:16.539Z,99.99
2018-09-01T03:49:16.599Z,99.99
2018-09-01T03:59:16.560Z,99.99
2018-09-01T04:09:16.539Z,99.99
2018-09-01T04:19:16.588Z,99.99
2018-09-01T04:29:16.548Z,99.99
2018-09-01T04:39:16.520Z,99.99
2018-09-01T04:49:16.571Z,99.99
2018-09-01T04:59:16.648Z,99.99
2018-09-01T05:09:16.611Z,99.99
2018-09-01T05:19:16.566Z,99.99
2018-09-01T05:29:16.610Z,99.99
2018-09-01T05:39:16.573Z,99.99
2018-09-01T05:49:16.646Z,99.99
2018-09-01T05:59:16.604Z,99.99
2018-09-01T06:09:16.594Z,99.99
2018-09-01T06:19:16.705Z,99.99
2018-09-01T06:29:16.608Z,99.99
2018-09-01T06:39:16.686Z,99.99
2018-09-01T06:49:16.636Z,99.99
2018-09-01T06:59:16.715Z,99.99
2018-09-01T07:09:16.652Z,99.99
2018-09-01T07:19:16.739Z,99.99
2018-09-01T07:29:16.683Z,99.99
2018-09-01T07:39:16.718Z,99.99
2018-09-01T07:49:16.674Z,99.99
2018-09-01T07:59:16.750Z,99.99
2018-09-01T08:09:16.719Z,99.99
2018-09-01T08:19:16.717Z,72.72
2018-09-01T08:29:16.725Z,60.51
2018-09-01T08:39:16.740Z,67.6
2018-09-01T08:49:16.727Z,75.22
2018-09-01T08:59:16.768Z,77.88
2018-09-01T09:09:16.756Z,81.56
2018-09-01T09:19:16.717Z,75.07
2018-09-01T09:29:16.782Z,78.63
2018-09-01T09:39:16.786Z,80.5
2018-09-01T09:49:16.733Z,77.76
2018-09-01T09:59:16.724Z,76.56
2018-09-01T10:09:16.814Z,72.71
2018-09-01T10:19:16.713Z,72.65
2018-09-01T10:29:16.687Z,71.04
2018-09-01T10:39:16.763Z,68.38
2018-09-01T10:49:16.723Z,69.38
2018-09-01T10:59:16.793Z,65.78
2018-09-01T11:09:16.721Z,63.82
2018-09-01T11:19:16.794Z,68.26
2018-09-01T11:29:16.746Z,64.47
2018-09-01T11:39:16.772Z,62.28
2018-09-01T11:49:16.828Z,61.09
2018-09-01T11:59:16.773Z,61.09
2018-09-01T12:09:16.775Z,62.92
2018-09-01T12:19:16.794Z,64.24
2018-09-01T12:29:16.739Z,65.53
2018-09-01T12:39:16.843Z,65.56
2018-09-01T12:49:16.794Z,64.5
2018-09-01T12:59:16.763Z,62.79
2018-09-01T13:09:16.824Z,62.51
2018-09-01T13:19:16.774Z,65.43
2018-09-01T13:29:16.851Z,64.59
2018-09-01T13:39:17.243Z,63.02
2018-09-01T13:49:16.772Z,59.68
2018-09-01T13:59:16.837Z,62.6
2018-09-01T14:09:16.751Z,63.82
2018-09-01T14:19:16.958Z,63.21
2018-09-01T14:29:18.190Z,61.83
2018-09-01T14:39:16.765Z,63.98
2018-09-01T14:49:16.834Z,61.83
2018-09-01T14:59:16.852Z,66.69
2018-09-01T15:09:16.855Z,63.21
2018-09-01T15:19:16.805Z,60.93
2018-09-01T15:29:16.762Z,59.31
2018-09-01T15:39:16.735Z,58.09
2018-09-01T15:49:16.787Z,59.22
2018-09-01T15:59:16.846Z,63.05
2018-09-01T16:09:16.819Z,64.47
2018-09-01T16:19:16.761Z,66.91
2018-09-01T16:29:16.872Z,68.48
2018-09-01T16:39:16.795Z,69.79
2018-09-01T16:49:16.789Z,69.7
2018-09-01T16:59:16.832Z,72.01
2018-09-01T17:09:16.862Z,72.45
2018-09-01T17:19:16.834Z,73.13
2018-09-01T17:29:16.798Z,73.86
2018-09-01T17:39:42.432Z,75.31
2018-09-01T17:49:42.861Z,76.52
2018-09-01T17:59:44.220Z,78.4
2018-09-01T18:09:42.796Z,80.86
2018-09-01T18:19:42.332Z,82.21
2018-09-01T18:29:42.889Z,84.71
2018-09-01T18:39:42.827Z,88.31
2018-09-01T18:49:41.633Z,90.67
2018-09-01T18:59:41.269Z,91.72
2018-09-01T19:09:39.132Z,95.41
2018-09-01T19:19:44.625Z,98.62
2018-09-01T19:29:43.153Z,99.99
2018-09-01T19:39:43.384Z,99.99
2018-09-01T19:49:42.347Z,99.99
2018-09-01T19:59:42.357Z,99.99
2018-09-01T20:09:42.525Z,99.99
2018-09-01T20:19:42.107Z,99.99
2018-09-01T20:29:44.264Z,99.99
2018-09-01T20:39:43.087Z,99.99
2018-09-01T20:49:43.044Z,99.99
2018-09-01T20:59:43.865Z,99.99
2018-09-01T21:09:41.981Z,99.99
2018-09-01T21:19:42.326Z,99.99
2018-09-01T21:29:39.510Z,99.99
2018-09-01T21:39:40.258Z,99.99
2018-09-01T21:49:41.153Z,99.99
2018-09-01T21:59:42.098Z,99.99
2018-09-01T22:09:40.167Z,99.99
2018-09-01T22:19:41.057Z,99.99
2018-09-01T22:29:42.214Z,99.99
2018-09-01T22:39:41.730Z,99.99
2018-09-01T22:49:40.451Z,99.99
2018-09-01T22:59:42.905Z,99.99
2018-09-01T23:09:42.383Z,99.99
2018-09-01T23:19:42.548Z,99.99
2018-09-01T23:29:40.868Z,99.99
2018-09-01T23:39:41.726Z,99.99
2018-09-01T23:49:42.676Z,99.99
2018-09-01T23:59:41.669Z,99.99
